sensor_id;sensor_type;location;lat;lon;timestamp;temperature;humidity
5828;DHT22;42583;50.240;8.444;2023-03-14T00:04:38;8.10;99.90
5828;DHT22;42583;50.240;8.444;2023-03-14T00:19:39;8.00;99.90
5828;DHT22;42583;50.240;8.444;2023-03-14T00:34:40;7.90;99.90
5828;DHT22;42583;50.240;8.444;2023-03-14T00:49:40;7.90;99.90
5828;DHT22;42583;50.240;8.444;2023-03-14T01:04:43;7.80;99.90
5828;DHT22;42583;50.240;8.444;2023-03-14T01:19:44;7.80;99.90
5828;DHT22;42583;50.240;8.444;2023-03-14T01:34:44;7.70;99.90
5828;DHT22;42583;50.240;8.444;2023-03-14T01:49:48;7.60;99.90
5828;DHT22;42583;50.240;8.444;2023-03-14T02:04:49;7.60;99.90
5828;DHT22;42583;50.240;8.444;2023-03-14T02:35:17;7.50;99.90
5828;DHT22;42583;50.240;8.444;2023-03-14T02:50:24;7.50;99.90
5828;DHT22;42583;50.240;8.444;2023-03-14T03:05:26;7.40;99.90
5828;DHT22;42583;50.240;8.444;2023-03-14T03:20:26;7.40;99.90
5828;DHT22;42583;50.240;8.444;2023-03-14T03:35:27;7.40;99.90
5828;DHT22;42583;50.240;8.444;2023-03-14T03:50:27;7.30;99.90
5828;DHT22;42583;50.240;8.444;2023-03-14T04:05:28;7.30;99.90
5828;DHT22;42583;50.240;8.444;2023-03-14T04:20:29;7.30;99.90
5828;DHT22;42583;50.240;8.444;2023-03-14T04:35:32;7.30;99.90
5828;DHT22;42583;50.240;8.444;2023-03-14T04:50:33;7.30;99.90
5828;DHT22;42583;50.240;8.444;2023-03-14T05:05:33;7.30;99.90
5828;DHT22;42583;50.240;8.444;2023-03-14T05:20:34;7.40;99.90
5828;DHT22;42583;50.240;8.444;2023-03-14T05:35:36;7.40;99.90
5828;DHT22;42583;50.240;8.444;2023-03-14T05:50:36;7.30;99.90
5828;DHT22;42583;50.240;8.444;2023-03-14T06:05:37;7.20;99.90
5828;DHT22;42583;50.240;8.444;2023-03-14T06:20:38;7.10;99.90
5828;DHT22;42583;50.240;8.444;2023-03-14T06:35:41;7.00;99.90
5828;DHT22;42583;50.240;8.444;2023-03-14T06:50:42;6.90;99.90
5828;DHT22;42583;50.240;8.444;2023-03-14T07:05:43;7.00;99.90
5828;DHT22;42583;50.240;8.444;2023-03-14T07:20:45;7.00;99.90
5828;DHT22;42583;50.240;8.444;2023-03-14T07:35:49;7.00;99.90
5828;DHT22;42583;50.240;8.444;2023-03-14T07:50:54;7.00;99.90
5828;DHT22;42583;50.240;8.444;2023-03-14T08:05:55;7.00;99.90
5828;DHT22;42583;50.240;8.444;2023-03-14T08:20:55;7.10;99.90
5828;DHT22;42583;50.240;8.444;2023-03-14T08:35:57;7.20;99.90
5828;DHT22;42583;50.240;8.444;2023-03-14T08:51:18;7.30;99.90
5828;DHT22;42583;50.240;8.444;2023-03-14T09:06:19;7.20;99.90
5828;DHT22;42583;50.240;8.444;2023-03-14T09:21:21;7.20;99.90
5828;DHT22;42583;50.240;8.444;2023-03-14T09:36:21;7.30;99.90
5828;DHT22;42583;50.240;8.444;2023-03-14T09:51:22;7.50;99.90
5828;DHT22;42583;50.240;8.444;2023-03-14T10:06:29;7.90;99.90
5828;DHT22;42583;50.240;8.444;2023-03-14T10:21:35;8.00;99.90
5828;DHT22;42583;50.240;8.444;2023-03-14T10:36:36;7.70;99.90
5828;DHT22;42583;50.240;8.444;2023-03-14T10:51:37;7.70;99.90
5828;DHT22;42583;50.240;8.444;2023-03-14T11:06:44;7.70;99.90
5828;DHT22;42583;50.240;8.444;2023-03-14T11:21:56;7.70;99.90
5828;DHT22;42583;50.240;8.444;2023-03-14T11:37:03;7.80;99.90
5828;DHT22;42583;50.240;8.444;2023-03-14T12:23:03;7.10;99.90
5828;DHT22;42583;50.240;8.444;2023-03-14T13:08:44;6.70;99.90
5828;DHT22;42583;50.240;8.444;2023-03-14T13:39:01;6.70;99.90
5828;DHT22;42583;50.240;8.444;2023-03-14T13:54:03;6.70;99.90
5828;DHT22;42583;50.240;8.444;2023-03-14T14:09:22;7.10;99.90
5828;DHT22;42583;50.240;8.444;2023-03-14T14:24:28;6.50;99.90
5828;DHT22;42583;50.240;8.444;2023-03-14T14:39:30;5.90;99.90
5828;DHT22;42583;50.240;8.444;2023-03-14T14:54:38;5.50;99.90
5828;DHT22;42583;50.240;8.444;2023-03-14T15:09:42;5.40;99.90
5828;DHT22;42583;50.240;8.444;2023-03-14T15:24:43;4.90;99.90
5828;DHT22;42583;50.240;8.444;2023-03-14T15:39:49;4.50;99.90
5828;DHT22;42583;50.240;8.444;2023-03-14T15:54:50;4.30;99.90
5828;DHT22;42583;50.240;8.444;2023-03-14T16:09:50;4.10;99.90
5828;DHT22;42583;50.240;8.444;2023-03-14T16:24:51;4.00;99.90
5828;DHT22;42583;50.240;8.444;2023-03-14T16:39:52;3.80;99.90
5828;DHT22;42583;50.240;8.444;2023-03-14T16:54:56;3.70;99.90
5828;DHT22;42583;50.240;8.444;2023-03-14T17:09:56;3.50;99.90
5828;DHT22;42583;50.240;8.444;2023-03-14T17:24:57;3.30;99.90
5828;DHT22;42583;50.240;8.444;2023-03-14T17:39:57;3.40;99.90
5828;DHT22;42583;50.240;8.444;2023-03-14T17:55:01;3.30;99.90
5828;DHT22;42583;50.240;8.444;2023-03-14T18:10:05;2.90;99.90
5828;DHT22;42583;50.240;8.444;2023-03-14T18:25:09;2.60;99.90
5828;DHT22;42583;50.240;8.444;2023-03-14T18:40:11;2.60;99.90
5828;DHT22;42583;50.240;8.444;2023-03-14T18:55:13;2.50;99.90
5828;DHT22;42583;50.240;8.444;2023-03-14T19:10:15;2.50;99.90
5828;DHT22;42583;50.240;8.444;2023-03-14T19:25:16;2.60;99.90
5828;DHT22;42583;50.240;8.444;2023-03-14T19:40:17;2.60;99.90
5828;DHT22;42583;50.240;8.444;2023-03-14T19:55:17;2.70;99.90
5828;DHT22;42583;50.240;8.444;2023-03-14T20:10:19;2.60;99.90
5828;DHT22;42583;50.240;8.444;2023-03-14T20:25:22;2.60;99.90
5828;DHT22;42583;50.240;8.444;2023-03-14T20:40:23;2.60;99.90
5828;DHT22;42583;50.240;8.444;2023-03-14T20:55:24;2.50;99.90
5828;DHT22;42583;50.240;8.444;2023-03-14T21:10:25;2.60;99.90
5828;DHT22;42583;50.240;8.444;2023-03-14T21:25:25;2.60;99.90
5828;DHT22;42583;50.240;8.444;2023-03-14T21:40:26;2.60;99.90
5828;DHT22;42583;50.240;8.444;2023-03-14T21:55:27;2.50;99.90
5828;DHT22;42583;50.240;8.444;2023-03-14T22:10:27;2.60;99.90
5828;DHT22;42583;50.240;8.444;2023-03-14T22:25:28;2.50;99.90
5828;DHT22;42583;50.240;8.444;2023-03-14T22:40:28;2.50;99.90
5828;DHT22;42583;50.240;8.444;2023-03-14T22:55:29;2.40;99.90
5828;DHT22;42583;50.240;8.444;2023-03-14T23:10:29;2.30;99.90
5828;DHT22;42583;50.240;8.444;2023-03-14T23:25:32;2.20;99.90
5828;DHT22;42583;50.240;8.444;2023-03-14T23:40:34;1.90;99.90
5828;DHT22;42583;50.240;8.444;2023-03-14T23:55:35;1.70;99.90
